• Join FlightAware (Why Join?)
  • Login
  • US Flag 
02:59PM EDT


 

Airport Tracker/Info


-or-


 

Live Flight TrackerFlight Track Log ✈ ASQ2552 ✈ 13-May-2013 ✈ KMSN - KDFW

Flight Track Log - Related Links

Times and Time Zones

All times are in EDT time to prevent confusion due to time zone crossing. See the ASQ2552 flight status page for this flight to view local times or setup timezone preferences in your user account.

Time Position Orientation Groundspeed Altitude Reporting Facility
EDT Latitude Longitude Course Direction KTS MPH feet Rate Location/Type
07:44PM 43.0700 -89.3689 204° Southwest 181 208 4,300  Level Chicago Center
07:45PM 43.0083 -89.4075 205° Southwest 225 259 7,100 2,640 Climbing Chicago Center
07:46PM 42.9358 -89.4525 204° Southwest 276 318 9,800 2,340 Climbing Chicago Center
07:47PM 42.8403 -89.5111 204° Southwest 317 365 11,900 1,620 Climbing Chicago Center
07:48PM 42.7461 -89.5700 205° Southwest 361 415 13,200 1,320 Climbing Chicago Center
07:49PM 42.8174 -89.5196 204° Southwest  Level FlightAware Approximate
07:49PM 42.6422 -89.6328 204° Southwest 402 463 14,700  Level Chicago Center
07:50PM 42.5383 -89.6983 205° Southwest 410 472 16,200 1,440 Climbing Chicago Center
07:51PM 42.4322 -89.7636 204° Southwest 418 481 17,700 1,500 Climbing Chicago Center
07:52PM 42.3072 -89.8397 204° Southwest 422 486 19,400 1,500 Climbing Chicago Center
07:53PM 42.2006 -89.9036 204° Southwest 419 482 20,900 1,200 Climbing Chicago Center
07:54PM 42.1081 -89.9603 204° Southwest 419 482 22,000 1,080 Climbing Chicago Center
07:55PM 41.9794 -90.0378 204° Southwest 422 486 23,200 1,020 Climbing Chicago Center
07:56PM 41.8686 -90.1036 204° Southwest 432 497 24,200 900 Climbing Chicago Center
07:58PM 41.7631 -90.1664 204° Southwest 438 504 25,100 900 Climbing Chicago Center
07:59PM 41.6503 -90.2356 205° Southwest 445 512 26,100 960 Climbing Chicago Center
08:00PM 41.5136 -90.3158 204° Southwest 448 516 27,100 780 Climbing Chicago Center
08:01PM 41.3986 -90.3842 204° Southwest 451 519 27,800 420 Climbing Chicago Center
08:02PM 41.2808 -90.4536 204° Southwest 463 533 28,000 60 Climbing Chicago Center
08:03PM 41.1592 -90.5264 204° Southwest 477 549 28,000  Level Chicago Center
08:04PM 41.0344 -90.5994 204° Southwest 487 560 28,000  Level Chicago Center
08:05PM 40.8836 -90.6875 204° Southwest 495 570 28,000  Level Chicago Center
08:06PM 40.7572 -90.7594 203° Southwest 498 573 28,000  Level Chicago Center
08:07PM 40.6306 -90.8336 204° Southwest 501 577 28,000  Level Chicago Center
08:08PM 40.5036 -90.9056 203° Southwest 499 574 28,000  Level Chicago Center
08:09PM 40.3761 -90.9781 203° Southwest 501 577 28,000  Level Chicago Center
08:10PM 40.2650 -91.0406 203° Southwest 499 574 28,000  Level Kansas City Center
08:11PM 40.1378 -91.1136 204° Southwest 501 577 28,000  Level Kansas City Center
08:12PM 40.0117 -91.1864 204° Southwest 499 574 28,000  Level Kansas City Center
08:13PM 39.8836 -91.2581 203° Southwest 502 578 28,000  Level Kansas City Center
08:14PM 39.7439 -91.3683 211° Southwest 491 565 28,000  Level Kansas City Center
08:15PM 39.6300 -91.4656 213° Southwest 491 565 28,000  Level Kansas City Center
08:16PM 39.5156 -91.5625 213° Southwest 492 566 28,000  Level Kansas City Center
08:17PM 39.4047 -91.6561 213° Southwest 493 567 28,000  Level Kansas City Center
08:18PM 39.2872 -91.7558 213° Southwest 492 566 28,000  Level Kansas City Center
08:19PM 39.1722 -91.8528 213° Southwest 484 557 28,000  Level Kansas City Center
08:20PM 39.0353 -91.9686 213° Southwest 490 564 28,000  Level Kansas City Center
08:21PM 38.9211 -92.0636 213° Southwest 489 563 28,000  Level Kansas City Center
08:22PM 38.8069 -92.1597 213° Southwest 490 564 28,000  Level Kansas City Center
08:23PM 38.6931 -92.2525 212° Southwest 486 559 28,000  Level Kansas City Center
08:24PM 38.5800 -92.3469 213° Southwest 485 558 28,000  Level Kansas City Center
08:25PM 38.4653 -92.4375 212° Southwest 486 559 28,000  Level Kansas City Center
08:26PM 38.3539 -92.5317 214° Southwest 482 555 28,000  Level Kansas City Center
08:27PM 38.2183 -92.6408 212° Southwest 482 555 28,000  Level Kansas City Center
08:28PM 38.1161 -92.7272 214° Southwest 484 557 28,000  Level Kansas City Center
08:29PM 37.9944 -92.8228 212° Southwest 482 555 28,000  Level Kansas City Center
08:30PM 37.8819 -92.9136 213° Southwest 482 555 28,000  Level Kansas City Center
08:31PM 37.7686 -93.0033 212° Southwest 482 555 28,000  Level Kansas City Center
08:32PM 37.6336 -93.1114 212° Southwest 481 554 28,000  Level Kansas City Center
08:33PM 37.5206 -93.2019 212° Southwest 479 551 28,000  Level Kansas City Center
08:34PM 37.4058 -93.2922 212° Southwest 482 555 28,000  Level Kansas City Center
08:35PM 37.2919 -93.3808 212° Southwest 482 555 28,000  Level Kansas City Center
08:36PM 37.1764 -93.4628 209° Southwest 479 551 28,000  Level Kansas City Center
08:37PM 37.0586 -93.5456 209° Southwest 480 552 28,000  Level Kansas City Center
08:39PM 36.9417 -93.6278 209° Southwest 481 554 28,000  Level Kansas City Center
08:40PM 36.8053 -93.7239 209° Southwest 482 555 28,000  Level Kansas City Center
08:41PM 36.6850 -93.8106 210° Southwest 479 551 28,000  Level Kansas City Center
08:42PM 36.5675 -93.8925 209° Southwest 481 554 28,000  Level Kansas City Center
08:43PM 36.4528 -93.9742 210° Southwest 476 548 28,000  Level Kansas City Center
08:44PM 36.3344 -94.0533 208° Southwest 478 550 28,000  Level Kansas City Center
08:45PM 36.2094 -94.1117 201° Southwest 476 548 28,000  Level Kansas City Center
08:46PM 36.0850 -94.1708 201° Southwest 477 549 28,000  Level Kansas City Center
08:47PM 35.9611 -94.2311 201° Southwest 476 548 28,000  Level Kansas City Center
08:48PM 35.8356 -94.2911 201° Southwest 477 549 28,000  Level Kansas City Center
08:49PM 35.7008 -94.3547 201° Southwest 480 552 28,000  Level Kansas City Center
08:50PM 35.5564 -94.4247 202° Southwest 482 555 28,000  Level Memphis Center
08:51PM 35.4314 -94.4850 201° Southwest 482 555 28,000  Level Memphis Center
08:52PM 35.2264 -94.5825 201° Southwest 457 526 28,000  Level Fort Worth Center
08:53PM 35.1025 -94.6400 201° Southwest 472 543 28,000  Level Fort Worth Center
08:54PM 34.9764 -94.6972 200° South 477 549 28,000  Level Fort Worth Center
08:55PM 34.8503 -94.7492 199° South 484 557 28,000  Level Fort Worth Center
08:56PM 34.7167 -94.7433 178° South 473 544 28,000  Level Fort Worth Center
08:57PM 34.5808 -94.7325 176° South 478 550 28,000 -60 Level Fort Worth Center
08:58PM 34.4553 -94.7211 176° South 472 543 27,900 -720 Descending Fort Worth Center
08:59PM 34.3342 -94.7125 177° South 452 520 26,600 -1,320 Descending Fort Worth Center
09:00PM 34.2217 -94.7208 184° South 436 502 25,300 -1,320 Descending Fort Worth Center
09:01PM 34.1533 -94.8411 236° Southwest 379 436 24,000 -660 Descending Fort Worth Center
09:02PM 34.0975 -94.9706 243° Southwest 403 464 24,000  Level Fort Worth Center
09:03PM 34.0436 -95.1025 244° Southwest 426 490 24,000  Level Fort Worth Center
09:04PM 33.9811 -95.2319 240° Southwest 440 506 24,000  Level Fort Worth Center
09:05PM 33.9186 -95.3586 239° Southwest 447 514 24,000  Level Fort Worth Center
09:06PM 33.8539 -95.4850 238° Southwest 456 525 24,000  Level Fort Worth Center
09:07PM 33.7911 -95.6139 240° Southwest 451 519 24,000 -300 Level Fort Worth Center
09:08PM 33.7364 -95.7250 239° Southwest 445 512 23,500 -1,500 Descending Fort Worth Center
09:09PM 33.6711 -95.8561 239° Southwest 440 506 21,000 -2,520 Descending Fort Worth Center
09:10PM 33.6203 -95.9617 240° Southwest 420 483 18,500 -2,400 Descending Fort Worth Center
09:11PM 33.5592 -96.0850 239° Southwest 406 467 16,300 -2,100 Descending Fort Worth Center
09:12PM 33.5119 -96.1803 239° Southwest 393 452 14,400 -1,860 Descending Fort Worth Center
09:13PM 33.4586 -96.2856 239° Southwest 354 407 12,600 -1,620 Descending Fort Worth Center
09:14PM 33.4136 -96.3708 238° Southwest 341 392 11,200 -840 Descending Fort Worth Center
09:15PM 33.3664 -96.4658 239° Southwest 320 368 11,000 -300 Descending Fort Worth Center
09:16PM 33.3292 -96.5433 240° Southwest 310 357 10,600 -1,140 Descending Fort Worth Center
09:17PM 33.2922 -96.6281 242° Southwest 304 350 8,800 -1,740 Descending Fort Worth Center
09:18PM 33.2531 -96.7156 242° Southwest 285 328 7,200 -1,380 Descending Fort Worth Center
09:19PM 33.2158 -96.7953 241° Southwest 280 322 6,100 -1,080 Descending Fort Worth Center
09:20PM 33.1767 -96.8625 235° Southwest 268 308 5,100 -1,080 Descending Fort Worth Center
09:21PM 33.1331 -96.9322 233° Southwest 262 302 4,000 -1,080 Descending Fort Worth Center
09:22PM 33.1019 -96.9869 236° Southwest 251 289 3,000 -480 Descending Fort Worth Center
09:23PM 33.0500 -97.0167 206° Southwest 171 197 3,100 -300 Climbing Dallas / Fort Worth TRACON
09:24PM 33.0167 -97.0167 180° South 160 184 2,400 -660 Descending Dallas / Fort Worth TRACON
09:25PM 32.9667 -97.0167 180° South 115 132 1,800 -660 Descending Dallas / Fort Worth TRACON
09:26PM 32.9333 -97.0167 180° South 117 135 1,100 -720 Descending Dallas / Fort Worth TRACON
09:28PM 32.8968 -97.0380 232° Southwest  Level Estimated
09:35PM 32.8968 -97.0380 232° Southwest  Level Estimated